Time;durP1;ratioP1;P1;durP2;ratioP2;P2;SDS_P1;SDS_P2;PMS_P1;PMS_P2;Temp;Humidity;BMP_temperature;BMP_pressure;BME280_temperature;BME280_humidity;BME280_pressure;Samples;Min_cycle;Max_cycle;Signal;HPM_P1;HPM_P2
2022/05/02 00:00:18;;;;;;;22.08;13.32;;;;;;;5.45;93.10;97531.59;5047135;28;20126;-68
2022/05/02 00:02:44;;;;;;;19.35;12.38;;;;;;;5.42;93.29;97525.84;5046512;28;20049;-68
2022/05/02 00:05:11;;;;;;;17.45;11.65;;;;;;;5.30;93.79;97525.69;5045514;28;20198;-68
2022/05/02 00:07:38;;;;;;;18.40;12.15;;;;;;;5.33;93.46;97531.47;5045949;28;20412;-68
2022/05/02 00:10:06;;;;;;;16.90;11.55;;;;;;;5.33;93.21;97526.09;5044426;28;20102;-68
2022/05/02 00:12:33;;;;;;;21.50;12.70;;;;;;;5.24;93.47;97527.38;5045392;28;20500;-68
2022/05/02 00:14:59;;;;;;;16.95;11.88;;;;;;;5.29;93.22;97527.56;5045222;28;20056;-68
2022/05/02 00:20:11;;;;;;;15.57;10.88;;;;;;;5.33;92.89;97517.22;5041833;28;20060;-68
2022/05/02 00:22:37;;;;;;;17.63;11.63;;;;;;;5.30;93.32;97512.25;5042952;28;20033;-68
2022/05/02 00:25:05;;;;;;;21.30;12.23;;;;;;;5.39;92.72;97518.22;5046392;28;20041;-68
2022/05/02 00:27:31;;;;;;;16.88;11.30;;;;;;;5.47;91.48;97510.75;5044265;28;20049;-67
2022/05/02 00:29:58;;;;;;;16.10;10.75;;;;;;;5.43;91.34;97517.59;5044931;28;20412;-68
2022/05/02 00:32:24;;;;;;;17.90;10.70;;;;;;;5.44;91.32;97516.53;5042575;28;20041;-68
2022/05/02 00:34:51;;;;;;;19.00;12.05;;;;;;;5.35;91.74;97512.47;5036340;28;20037;-68
2022/05/02 00:37:18;;;;;;;17.63;11.60;;;;;;;5.29;92.17;97511.44;5043160;28;20543;-68
2022/05/02 00:39:45;;;;;;;16.02;11.43;;;;;;;5.36;92.03;97516.78;5039427;28;20053;-68
2022/05/02 00:42:11;;;;;;;15.80;11.15;;;;;;;5.41;91.78;97510.75;5043709;28;20512;-68
2022/05/02 00:44:45;;;;;;;20.40;11.55;;;;;;;5.43;91.72;97512.22;5046001;28;20041;-68
2022/05/02 00:47:15;;;;;;;15.27;11.00;;;;;;;5.44;91.75;97510.34;5043524;28;20113;-68
2022/05/02 00:49:43;;;;;;;16.80;11.07;;;;;;;5.31;91.51;97506.69;5044066;28;20049;-68
2022/05/02 00:52:09;;;;;;;15.80;10.90;;;;;;;5.20;92.33;97507.38;5045143;28;20419;-68
2022/05/02 00:54:37;;;;;;;20.65;12.82;;;;;;;5.12;93.18;97502.25;5045178;28;20044;-68
2022/05/02 00:57:07;;;;;;;17.70;11.70;;;;;;;4.89;93.96;97508.91;5044970;28;20044;-69
2022/05/02 00:59:37;;;;;;;18.88;12.57;;;;;;;4.83;94.50;97499.84;5044506;28;20099;-68
2022/05/02 01:02:06;;;;;;;16.83;11.57;;;;;;;4.93;94.68;97505.63;5044903;28;20160;-67
2022/05/02 01:04:33;;;;;;;19.02;12.68;;;;;;;4.95;94.43;97502.72;5043419;28;20044;-68
2022/05/02 01:07:09;;;;;;;17.45;11.35;;;;;;;5.12;93.83;97499.56;5043394;28;20416;-67
2022/05/02 01:09:41;;;;;;;22.58;12.73;;;;;;;5.02;93.78;97492.78;5044272;28;20049;-68
2022/05/02 01:12:12;;;;;;;;;;;;;;;4.89;93.93;97496.34;5044319;28;20392;-67
2022/05/02 01:14:39;;;;;;;20.85;14.00;;;;;;;4.87;94.46;97495.72;5039367;28;20905;-68
2022/05/02 01:17:06;;;;;;;20.33;12.98;;;;;;;4.94;94.63;97493.03;5034235;28;20044;-67
2022/05/02 01:19:33;;;;;;;19.92;12.75;;;;;;;5.00;94.55;97485.97;5040105;28;20047;-68
2022/05/02 01:22:00;;;;;;;19.73;13.25;;;;;;;5.12;94.48;97481.59;5037527;28;20053;-68
2022/05/02 01:24:41;;;;;;;22.25;14.05;;;;;;;5.15;94.56;97486.53;5037451;28;20044;-68
2022/05/02 01:27:10;;;;;;;20.15;13.82;;;;;;;5.14;94.02;97482.19;5038129;28;20119;-67
2022/05/02 01:29:40;;;;;;;19.63;13.07;;;;;;;5.14;93.99;97484.06;5039340;28;20040;-67
2022/05/02 01:32:11;;;;;;;19.23;11.98;;;;;;;5.20;94.15;97484.03;5042148;28;20056;-68
2022/05/02 01:34:42;;;;;;;22.80;13.48;;;;;;;5.02;94.03;97483.91;5040922;28;20099;-68
2022/05/02 01:37:11;;;;;;;21.83;14.13;;;;;;;4.95;94.64;97476.69;5043789;28;20033;-68
2022/05/02 01:39:37;;;;;;;23.63;13.60;;;;;;;5.04;94.75;97476.47;5044970;28;20041;-68
2022/05/02 01:42:10;;;;;;;21.95;12.45;;;;;;;5.05;94.86;97472.75;5043187;28;20071;-68
2022/05/02 01:44:39;;;;;;;19.70;13.60;;;;;;;5.00;94.80;97468.03;5044928;28;20118;-68
2022/05/02 01:47:07;;;;;;;21.25;13.48;;;;;;;4.99;95.03;97463.69;5056901;28;20047;-67
2022/05/02 01:49:34;;;;;;;23.35;15.18;;;;;;;4.95;94.97;97467.84;5042340;28;20049;-67
2022/05/02 01:52:01;;;;;;;22.80;13.68;;;;;;;4.85;95.20;97457.56;5042325;28;20685;-67
2022/05/02 01:54:27;;;;;;;22.80;15.07;;;;;;;4.81;95.53;97459.03;5035847;28;20043;-67
2022/05/02 01:56:56;;;;;;;21.67;13.98;;;;;;;4.78;95.28;97462.13;5036802;28;20029;-68
2022/05/02 01:59:23;;;;;;;24.55;14.20;;;;;;;4.85;95.37;97456.72;5043305;28;20056;-67
2022/05/02 02:01:50;;;;;;;21.42;13.90;;;;;;;4.87;95.55;97454.66;5044134;28;20044;-67
2022/05/02 02:07:04;;;;;;;22.55;14.80;;;;;;;5.03;95.39;97447.97;5042950;28;20429;-68
2022/05/02 02:09:30;;;;;;;18.50;11.95;;;;;;;5.08;95.13;97454.34;5041900;28;20055;-68
2022/05/02 02:11:57;;;;;;;23.88;15.98;;;;;;;5.08;95.12;97451.66;5043945;28;20048;-68
2022/05/02 02:14:24;;;;;;;24.35;15.30;;;;;;;5.04;94.82;97449.63;5043988;28;20045;-68
2022/05/02 02:16:51;;;;;;;20.90;13.48;;;;;;;5.11;94.55;97454.94;5043550;28;20049;-68
2022/05/02 02:19:18;;;;;;;20.60;12.82;;;;;;;5.09;94.80;97455.19;5042845;28;20562;-68
2022/05/02 02:21:45;;;;;;;22.05;13.82;;;;;;;5.07;95.16;97457.25;5043941;28;20073;-68
2022/05/02 02:24:12;;;;;;;22.45;14.68;;;;;;;5.18;95.18;97458.44;5050866;28;20127;-68
2022/05/02 02:26:39;;;;;;;23.45;15.52;;;;;;;5.20;95.04;97446.44;5043744;28;20715;-68
2022/05/02 02:29:06;;;;;;;22.20;14.00;;;;;;;5.23;94.82;97447.88;5043427;28;20087;-68
2022/05/02 02:31:32;;;;;;;18.70;12.10;;;;;;;5.30;94.87;97445.97;5044288;28;20049;-68
2022/05/02 02:33:59;;;;;;;20.13;13.90;;;;;;;5.33;94.40;97442.88;5044327;28;20124;-68
2022/05/02 02:36:25;;;;;;;23.38;14.82;;;;;;;5.37;94.23;97445.94;5044823;28;20078;-68
2022/05/02 02:38:52;;;;;;;19.23;12.77;;;;;;;5.47;93.79;97445.47;5048295;28;20316;-68
2022/05/02 02:41:18;;;;;;;18.98;13.13;;;;;;;5.47;93.12;97442.78;5047218;28;20044;-67
2022/05/02 02:43:45;;;;;;;20.95;13.65;;;;;;;5.41;93.59;97440.94;5048753;28;20041;-67
2022/05/02 02:46:11;;;;;;;20.55;12.98;;;;;;;5.39;93.44;97443.88;5047470;28;20057;-67
2022/05/02 02:48:38;;;;;;;19.95;13.73;;;;;;;5.27;93.63;97442.91;5045982;28;20112;-67
2022/05/02 02:51:05;;;;;;;22.85;14.60;;;;;;;5.17;93.91;97436.13;5047034;28;20040;-68
2022/05/02 02:53:31;;;;;;;20.92;14.35;;;;;;;5.11;94.39;97438.84;5048535;28;20045;-68
2022/05/02 02:55:58;;;;;;;20.85;14.25;;;;;;;4.95;94.82;97430.28;5043593;28;20095;-68
2022/05/02 02:58:24;;;;;;;22.67;14.23;;;;;;;4.91;94.96;97432.53;5046802;28;20087;-68
2022/05/02 03:00:52;;;;;;;20.75;14.45;;;;;;;4.71;95.24;97435.31;5046770;28;20112;-68
2022/05/02 03:03:19;;;;;;;21.75;14.38;;;;;;;4.60;95.47;97426.06;5046136;28;20049;-68
2022/05/02 03:06:04;;;;;;;21.60;13.68;;;;;;;4.64;95.32;97423.81;5047553;28;20575;-68
2022/05/02 03:08:34;;;;;;;20.45;13.52;;;;;;;4.80;94.71;97428.66;5046889;28;20128;-67
2022/05/02 03:11:01;;;;;;;21.40;13.57;;;;;;;4.76;94.11;97422.09;5045883;28;20049;-68
2022/05/02 03:13:28;;;;;;;19.60;12.13;;;;;;;4.71;94.41;97429.16;5047889;28;20053;-68
2022/05/02 03:15:55;;;;;;;20.35;12.70;;;;;;;4.47;95.06;97421.59;5043660;28;20048;-68
2022/05/02 03:18:22;;;;;;;20.70;14.70;;;;;;;4.34;95.64;97414.41;5038990;28;20048;-68
2022/05/02 03:20:49;;;;;;;22.88;15.18;;;;;;;4.12;95.81;97422.72;5041420;28;20095;-67
2022/05/02 03:23:16;;;;;;;24.52;15.05;;;;;;;4.14;97.00;97419.81;5043381;28;20041;-68
2022/05/02 03:25:42;;;;;;;26.38;15.40;;;;;;;4.08;96.58;97415.28;5045788;28;20052;-68
2022/05/02 03:28:09;;;;;;;24.05;15.65;;;;;;;4.03;97.09;97418.59;5047645;28;20052;-68
2022/05/02 03:30:36;;;;;;;26.23;15.10;;;;;;;4.03;97.51;97418.59;5046000;28;20500;-68
2022/05/02 03:33:02;;;;;;;21.83;14.60;;;;;;;4.15;97.42;97421.47;5047069;28;20048;-67
2022/05/02 03:35:30;;;;;;;21.35;13.43;;;;;;;4.12;96.16;97414.66;5042021;28;20102;-68
2022/05/02 03:37:56;;;;;;;21.55;13.38;;;;;;;3.88;95.95;97411.59;5047484;28;20052;-67
2022/05/02 03:40:24;;;;;;;25.63;14.65;;;;;;;3.82;96.85;97416.97;5046433;28;20397;-67
2022/05/02 03:42:50;;;;;;;23.20;14.10;;;;;;;3.67;97.51;97412.66;5046654;28;20045;-68
2022/05/02 03:45:18;;;;;;;25.05;14.93;;;;;;;3.81;97.88;97409.97;5047176;28;20488;-67
2022/05/02 03:47:44;;;;;;;23.90;14.90;;;;;;;4.13;98.27;97412.81;5043988;28;20037;-67
2022/05/02 03:50:11;;;;;;;25.88;16.90;;;;;;;4.24;96.43;97412.16;5045132;28;20045;-68
2022/05/02 03:52:37;;;;;;;25.20;16.25;;;;;;;4.33;96.63;97410.09;5039710;28;20077;-68
2022/05/02 03:55:04;;;;;;;20.65;12.95;;;;;;;4.10;95.55;97406.03;5040023;28;20475;-67
2022/05/02 03:57:31;;;;;;;21.02;13.98;;;;;;;3.91;95.66;97413.06;5038748;28;20512;-68
2022/05/02 03:59:57;;;;;;;21.55;14.45;;;;;;;3.97;96.78;97412.22;5041924;28;20045;-67
2022/05/02 04:02:24;;;;;;;22.20;14.25;;;;;;;4.10;96.52;97408.69;5040046;28;20048;-67
2022/05/02 04:04:50;;;;;;;21.83;14.55;;;;;;;4.15;96.30;97413.41;5046704;28;20080;-68
2022/05/02 04:07:17;;;;;;;22.15;13.48;;;;;;;4.24;96.23;97409.47;5041249;28;20551;-68
2022/05/02 04:09:43;;;;;;;21.13;14.10;;;;;;;4.23;95.89;97415.88;5043961;28;20041;-68
2022/05/02 04:12:10;;;;;;;20.33;13.43;;;;;;;4.31;95.74;97420.19;5042608;28;20504;-68
2022/05/02 04:14:37;;;;;;;23.80;14.43;;;;;;;4.37;95.29;97410.47;5041556;28;20051;-68
2022/05/02 04:17:04;;;;;;;23.75;14.55;;;;;;;4.40;95.25;97410.06;5042732;28;20045;-67
2022/05/02 04:19:31;;;;;;;21.13;13.38;;;;;;;4.41;95.33;97417.91;5044778;28;20052;-68
2022/05/02 04:21:57;;;;;;;20.35;14.40;;;;;;;4.55;94.77;97413.31;5046045;28;20041;-68
2022/05/02 04:24:24;;;;;;;22.33;13.38;;;;;;;4.59;94.67;97411.03;5046450;28;20041;-68
2022/05/02 04:26:50;;;;;;;18.60;12.30;;;;;;;4.64;94.55;97408.53;5038343;28;20053;-68
2022/05/02 04:29:17;;;;;;;20.70;13.43;;;;;;;4.72;94.18;97406.66;5037794;28;20056;-68
2022/05/02 04:31:43;;;;;;;20.50;13.25;;;;;;;4.80;94.06;97417.13;5043092;28;20056;-67
2022/05/02 04:34:10;;;;;;;21.30;13.13;;;;;;;4.93;93.12;97410.88;5051390;28;20045;-68
2022/05/02 04:36:37;;;;;;;18.77;13.07;;;;;;;5.04;92.77;97412.88;5042451;28;20045;-68
2022/05/02 04:39:03;;;;;;;19.08;13.45;;;;;;;5.06;93.27;97410.78;5034347;28;20044;-68
2022/05/02 04:41:30;;;;;;;21.60;13.27;;;;;;;5.04;92.45;97404.81;5053500;28;20876;-67
2022/05/02 04:43:56;;;;;;;19.83;13.90;;;;;;;5.06;93.03;97405.41;5044185;28;20629;-68
2022/05/02 04:46:23;;;;;;;19.15;13.05;;;;;;;5.17;93.75;97403.09;5037419;28;20048;-68
2022/05/02 04:48:50;;;;;;;20.42;13.77;;;;;;;5.21;93.33;97401.63;5043935;28;20500;-68
2022/05/02 04:51:16;;;;;;;20.00;13.27;;;;;;;5.18;93.19;97408.25;5042869;28;20037;-67
2022/05/02 04:53:43;;;;;;;19.55;12.75;;;;;;;5.41;92.50;97406.88;5043743;28;20055;-68
2022/05/02 04:56:11;;;;;;;22.35;13.77;;;;;;;5.51;91.89;97406.38;5042336;28;20041;-67
2022/05/02 04:58:38;;;;;;;21.58;13.30;;;;;;;5.53;92.27;97406.16;5043518;28;20036;-67
2022/05/02 05:01:06;;;;;;;21.67;13.20;;;;;;;5.56;92.93;97401.16;5039378;28;20060;-68
2022/05/02 05:03:35;;;;;;;22.48;13.93;;;;;;;5.67;92.60;97410.38;5052048;28;20051;-68
2022/05/02 05:06:02;;;;;;;23.92;14.18;;;;;;;5.66;92.30;97405.22;5040667;28;20094;-67
2022/05/02 05:08:28;;;;;;;22.83;14.38;;;;;;;5.66;92.94;97406.06;5044071;28;20725;-68
2022/05/02 05:11:05;;;;;;;19.92;13.05;;;;;;;5.77;93.05;97409.91;5042915;28;20048;-68
2022/05/02 05:16:20;;;;;;;21.92;15.18;;;;;;;5.75;93.64;97411.16;5049093;28;20040;-68
2022/05/02 05:17:01;;;;;;;22.33;13.68;;;;;;;5.94;93.06;97410.16;5038625;28;20074;-68
2022/05/02 05:19:48;;;;;;;19.65;13.88;;;;;;;5.98;93.15;97410.53;5042085;28;20045;-68
2022/05/02 05:22:56;;;;;;;21.42;15.02;;;;;;;6.11;93.48;97407.75;5042584;28;20122;-67
2022/05/02 05:25:26;;;;;;;22.17;14.35;;;;;;;6.22;93.58;97416.13;5056621;28;20051;-67
2022/05/02 05:28:21;;;;;;;24.05;15.68;;;;;;;6.36;93.28;97409.56;5037602;28;20042;-67
2022/05/02 05:30:54;;;;;;;24.35;14.93;;;;;;;6.50;93.27;97404.03;5036656;28;20052;-67
2022/05/02 05:33:58;;;;;;;25.77;16.17;;;;;;;6.64;93.21;97410.91;5043014;28;20045;-67
2022/05/02 05:36:44;;;;;;;27.95;16.35;;;;;;;6.81;93.50;97407.59;5042978;28;20037;-67
2022/05/02 05:39:28;;;;;;;25.42;16.55;;;;;;;6.99;93.05;97406.75;5038930;28;20060;-67
2022/05/02 05:42:06;;;;;;;28.67;17.25;;;;;;;7.11;93.30;97406.78;5040119;28;20504;-67
2022/05/02 05:44:41;;;;;;;26.98;16.88;;;;;;;7.35;92.66;97409.56;5042169;28;20033;-67
2022/05/02 05:47:31;;;;;;;28.42;18.13;;;;;;;7.60;92.15;97405.88;5039989;28;20060;-67
2022/05/02 05:50:24;;;;;;;24.90;17.17;;;;;;;7.81;90.86;97407.16;5040091;28;20047;-67
2022/05/02 05:53:25;;;;;;;25.58;16.52;;;;;;;8.07;90.60;97409.63;5037014;28;20045;-67
2022/05/02 05:56:06;;;;;;;22.90;15.95;;;;;;;8.34;89.00;97403.78;5037767;28;20048;-66
2022/05/02 05:58:32;;;;;;;21.55;15.60;;;;;;;8.57;87.37;97399.41;5037883;28;20041;-67
2022/05/02 06:01:13;;;;;;;25.27;16.75;;;;;;;8.62;87.94;97401.41;5046126;28;20094;-67
2022/05/02 06:04:03;;;;;;;24.70;16.47;;;;;;;8.87;87.96;97400.25;5044123;28;20075;-67
2022/05/02 06:06:32;;;;;;;27.45;17.40;;;;;;;9.04;87.20;97400.31;5035566;28;20302;-68
2022/05/02 06:09:00;;;;;;;27.52;17.85;;;;;;;9.29;87.07;97405.38;5053481;28;20029;-68
2022/05/02 06:11:28;;;;;;;27.02;17.60;;;;;;;9.53;85.47;97396.31;5056684;28;20408;-68
2022/05/02 06:13:58;;;;;;;25.40;18.77;;;;;;;9.64;85.11;97406.25;5033608;28;20045;-68
2022/05/02 06:19:20;;;;;;;25.77;17.33;;;;;;;9.86;84.57;97400.91;5053258;28;20045;-68
2022/05/02 06:21:46;;;;;;;25.98;17.77;;;;;;;9.96;82.77;97404.84;5046448;28;20049;-68
2022/05/02 06:24:14;;;;;;;24.40;17.05;;;;;;;10.08;81.51;97405.56;5046372;28;20045;-68
2022/05/02 06:26:45;;;;;;;22.98;17.30;;;;;;;10.13;81.29;97408.34;5044031;28;20155;-68
2022/05/02 06:29:12;;;;;;;25.10;16.83;;;;;;;10.23;80.84;97410.38;5046246;28;20034;-68
2022/05/02 06:31:48;;;;;;;26.50;17.48;;;;;;;10.36;80.49;97411.09;5044627;28;20041;-68
2022/05/02 06:34:21;;;;;;;22.98;17.02;;;;;;;10.56;79.65;97407.88;5046780;28;20048;-68
2022/05/02 06:37:08;;;;;;;21.77;15.23;;;;;;;10.85;78.15;97406.88;5045560;28;20052;-68
2022/05/02 06:39:49;;;;;;;18.88;14.27;;;;;;;10.93;76.73;97401.00;5042353;28;20048;-68
2022/05/02 06:42:34;;;;;;;20.27;14.40;;;;;;;11.08;76.69;97402.22;5044138;28;20044;-68
2022/05/02 06:45:26;;;;;;;19.38;14.60;;;;;;;11.22;76.14;97403.50;5037080;28;20034;-68
2022/05/02 06:48:05;;;;;;;18.40;13.43;;;;;;;11.26;75.31;97401.91;5043146;28;20756;-68
2022/05/02 06:50:36;;;;;;;19.73;14.98;;;;;;;11.26;76.23;97403.78;5040182;28;20049;-69
2022/05/02 06:53:25;;;;;;;20.42;14.88;;;;;;;11.28;75.25;97405.16;5036386;28;20048;-68
2022/05/02 06:56:06;;;;;;;19.08;14.25;;;;;;;11.55;74.76;97396.22;5048715;28;20044;-69
2022/05/02 06:58:49;;;;;;;19.58;13.80;;;;;;;11.90;72.89;97398.66;5040471;28;20033;-68
2022/05/02 07:01:39;;;;;;;17.42;12.95;;;;;;;12.05;70.41;97400.66;5040871;28;20049;-70
2022/05/02 07:04:27;;;;;;;22.50;12.95;;;;;;;12.07;71.09;97393.94;5039552;28;20041;-69
2022/05/02 07:07:10;;;;;;;17.58;14.00;;;;;;;12.23;70.21;97397.53;5042188;28;20487;-67
2022/05/02 07:09:45;;;;;;;18.08;12.95;;;;;;;12.20;69.93;97395.34;5037200;28;20101;-69
2022/05/02 07:12:23;;;;;;;16.95;12.35;;;;;;;12.25;69.62;97396.47;5044966;28;20102;-69
2022/05/02 07:15:08;;;;;;;15.90;11.45;;;;;;;12.41;68.39;97395.47;5055130;28;20045;-69
2022/05/02 07:17:47;;;;;;;15.20;11.80;;;;;;;12.38;68.08;97397.91;5034556;28;20056;-69
2022/05/02 07:20:22;;;;;;;15.50;11.98;;;;;;;12.34;67.61;97397.59;5038442;28;20053;-69
2022/05/02 07:23:05;;;;;;;16.30;13.05;;;;;;;12.34;68.34;97405.75;5040944;28;20543;-69
2022/05/02 07:25:35;;;;;;;17.65;12.50;;;;;;;12.77;67.32;97404.88;5043271;28;20063;-69
2022/05/02 07:28:22;;;;;;;15.23;12.27;;;;;;;12.88;67.01;97396.50;5041185;28;20471;-66
2022/05/02 07:30:55;;;;;;;17.38;12.73;;;;;;;12.67;68.54;97400.19;5039274;28;20048;-67
2022/05/02 07:33:21;;;;;;;18.60;13.23;;;;;;;12.61;68.98;97408.34;5042167;28;20478;-67
2022/05/02 07:35:49;;;;;;;17.55;13.68;;;;;;;13.01;67.94;97402.50;5056425;28;20041;-67
2022/05/02 07:38:20;;;;;;;19.67;13.00;;;;;;;13.18;66.13;97406.91;5048214;28;20500;-65
2022/05/02 07:43:36;;;;;;;16.63;12.80;;;;;;;12.87;66.40;97415.78;5060505;28;20049;-67
2022/05/02 07:46:03;;;;;;;17.77;13.15;;;;;;;12.80;67.16;97416.03;5051496;28;20047;-71
2022/05/02 07:48:32;;;;;;;16.25;12.80;;;;;;;13.06;66.79;97407.16;5048492;28;20037;-69
2022/05/02 07:51:00;;;;;;;16.02;12.00;;;;;;;13.19;66.67;97406.63;5044113;28;20509;-71
2022/05/02 07:53:29;;;;;;;16.13;12.75;;;;;;;13.09;66.61;97404.69;5046467;28;20041;-70
2022/05/02 07:55:56;;;;;;;17.98;13.07;;;;;;;12.90;67.25;97404.38;5043518;28;20098;-71
2022/05/02 07:58:26;;;;;;;16.67;12.80;;;;;;;12.83;67.31;97404.63;5042632;28;20052;-70
2022/05/02 08:00:53;;;;;;;17.10;12.65;;;;;;;13.08;66.27;97402.28;5043182;28;20052;-70
2022/05/02 08:03:23;;;;;;;18.23;13.18;;;;;;;12.75;68.42;97408.66;5044975;28;20759;-72
2022/05/02 08:05:57;;;;;;;18.63;12.38;;;;;;;12.95;68.08;97398.16;5042858;28;20072;-73
2022/05/02 08:08:37;;;;;;;17.38;13.00;;;;;;;13.00;67.90;97400.88;5052724;28;20044;-71
2022/05/02 08:11:21;;;;;;;17.05;13.43;;;;;;;13.00;66.90;97398.16;5040094;28;20052;-73
2022/05/02 08:14:16;;;;;;;17.63;12.32;;;;;;;12.90;67.41;97400.84;5054481;28;20072;-71
2022/05/02 08:16:59;;;;;;;16.98;13.02;;;;;;;13.05;68.54;97405.53;5041898;28;20040;-70
2022/05/02 08:19:37;;;;;;;19.05;13.60;;;;;;;13.04;68.53;97407.41;5044200;28;20503;-69
2022/05/02 08:28:08;;;;;;;17.90;13.23;;;;;;;13.20;67.07;97402.03;5039321;28;20033;-71
2022/05/02 08:30:51;;;;;;;16.52;13.20;;;;;;;13.21;66.87;97401.75;5047158;28;20052;-70
2022/05/02 08:33:25;;;;;;;17.95;13.77;;;;;;;13.34;66.50;97400.41;5040849;28;20049;-72
2022/05/02 08:36:05;;;;;;;18.00;13.38;;;;;;;13.40;67.49;97395.81;5042550;28;20048;-69
2022/05/02 08:38:48;;;;;;;19.27;13.35;;;;;;;13.47;66.92;97400.97;5041238;28;20568;-69
2022/05/02 08:41:31;;;;;;;19.27;13.57;;;;;;;13.58;66.79;97394.50;5058006;28;20763;-69
2022/05/02 08:44:07;;;;;;;16.02;13.48;;;;;;;13.64;65.90;97393.41;5043956;28;20128;-69
2022/05/02 08:47:02;;;;;;;18.42;13.45;;;;;;;13.70;67.48;97387.97;5041364;28;20440;-68
2022/05/02 08:49:50;;;;;;;16.88;13.25;;;;;;;13.76;67.90;97395.88;5036143;28;20175;-70
2022/05/02 08:52:38;;;;;;;16.65;12.40;;;;;;;13.87;64.91;97390.41;5036745;28;20048;-70
2022/05/02 08:55:18;;;;;;;16.92;13.60;;;;;;;14.02;65.36;97386.88;5050111;28;20049;-70
2022/05/02 08:58:18;;;;;;;17.27;12.45;;;;;;;14.22;66.39;97386.00;5027598;28;20576;-67
2022/05/02 09:01:12;;;;;;;16.33;13.15;;;;;;;14.26;67.19;97391.75;5043182;28;20564;-68
2022/05/02 09:04:07;;;;;;;17.23;13.30;;;;;;;14.28;66.40;97392.25;5043128;28;20849;-70
2022/05/02 09:06:58;;;;;;;16.98;13.65;;;;;;;14.31;66.37;97384.34;5051818;28;20052;-71
2022/05/02 09:09:54;;;;;;;17.00;12.63;;;;;;;14.23;64.84;97384.13;5052204;28;20404;-69
2022/05/02 09:12:41;;;;;;;16.00;13.40;;;;;;;14.42;67.05;97390.59;5063349;28;20147;-69
2022/05/02 09:15:20;;;;;;;19.20;13.68;;;;;;;14.59;61.04;97391.38;5051790;28;20049;-70
2022/05/02 09:18:22;;;;;;;17.75;12.25;;;;;;;14.76;60.29;97391.03;5040922;28;20041;-70
2022/05/02 09:20:58;;;;;;;;;;;;;;;14.78;61.01;97386.16;5038579;28;20049;-69
2022/05/02 09:23:49;;;;;;;19.73;12.88;;;;;;;14.84;64.95;97390.47;5054335;28;19924;-69
2022/05/02 09:26:24;;;;;;;17.50;13.03;;;;;;;14.95;63.27;97394.81;5043996;28;20052;-70
2022/05/02 09:28:54;;;;;;;13.35;11.68;;;;;;;14.84;60.59;97395.94;5048306;28;20037;-72
2022/05/02 09:31:51;;;;;;;18.83;13.65;;;;;;;14.62;62.05;97394.34;5042512;28;20049;-69
2022/05/02 09:34:44;;;;;;;16.40;13.23;;;;;;;14.86;63.09;97388.31;5043026;28;20114;-72
2022/05/02 09:37:29;;;;;;;17.35;12.77;;;;;;;15.03;62.01;97384.38;5033102;28;20052;-69
2022/05/02 09:40:07;;;;;;;14.43;11.10;;;;;;;15.01;60.80;97381.13;5037982;28;20041;-70
2022/05/02 09:42:43;;;;;;;14.88;11.50;;;;;;;14.85;60.60;97389.38;5048579;28;20056;-70
2022/05/02 09:51:45;;;;;;;15.88;11.57;;;;;;;15.44;58.98;97370.50;5038022;28;20057;-68
2022/05/02 09:57:21;;;;;;;12.52;10.20;;;;;;;15.69;56.86;97376.03;5041209;28;20045;-68
2022/05/02 10:01:06;;;;;;;13.32;10.68;;;;;;;15.95;54.57;97370.38;5036013;28;20045;-68
2022/05/02 10:02:48;;;;;;;14.55;10.55;;;;;;;16.12;55.23;97364.50;5036431;28;20051;-70
2022/05/02 10:05:26;;;;;;;15.10;11.25;;;;;;;16.00;55.72;97364.91;5042133;28;20226;-67
2022/05/02 10:08:30;;;;;;;14.00;11.15;;;;;;;16.31;54.73;97363.75;5041977;28;21058;-68
2022/05/02 10:11:09;;;;;;;12.50;10.02;;;;;;;16.36;53.46;97355.50;5040508;28;20410;-71
2022/05/02 10:14:18;;;;;;;12.90;9.52;;;;;;;16.60;52.82;97357.41;5037896;28;20463;-69
2022/05/02 10:16:51;;;;;;;13.98;10.70;;;;;;;16.33;53.66;97358.84;5038732;28;20064;-70
2022/05/02 10:19:27;;;;;;;18.73;11.50;;;;;;;16.40;54.00;97356.53;5039338;28;20064;-70
2022/05/02 10:22:08;;;;;;;12.13;9.57;;;;;;;16.52;52.86;97348.75;5042944;28;20550;-70
2022/05/02 10:24:56;;;;;;;12.20;10.15;;;;;;;16.32;52.61;97347.06;5043251;28;20045;-69
2022/05/02 10:27:43;;;;;;;12.50;9.15;;;;;;;16.63;52.75;97343.19;5037799;28;20037;-67
2022/05/02 10:30:12;;;;;;;14.32;9.98;;;;;;;16.58;52.69;97349.50;5043177;28;20678;-66
2022/05/02 10:32:44;;;;;;;13.10;9.32;;;;;;;16.31;52.06;97347.38;5041661;28;20455;-67
2022/05/02 10:35:14;;;;;;;10.25;8.25;;;;;;;16.42;51.02;97346.16;5041238;28;20048;-66
2022/05/02 10:37:47;;;;;;;11.70;8.68;;;;;;;16.78;50.58;97347.63;5054229;28;20052;-67
2022/05/02 10:40:13;;;;;;;11.27;7.22;;;;;;;16.91;49.61;97343.34;5041964;28;20140;-67
2022/05/02 10:42:45;;;;;;;8.32;6.03;;;;;;;17.22;47.54;97345.72;5046796;28;20098;-67
2022/05/02 10:45:14;;;;;;;9.45;6.63;;;;;;;17.35;47.11;97335.91;5042169;28;20049;-68
2022/05/02 10:48:08;;;;;;;7.70;6.13;;;;;;;17.86;44.54;97340.84;5040580;28;20064;-66
2022/05/02 10:50:35;;;;;;;8.95;6.72;;;;;;;17.88;45.07;97333.94;5055008;28;20122;-67
2022/05/02 10:53:20;;;;;;;11.55;6.15;;;;;;;18.27;44.64;97336.56;5033182;28;20090;-67
2022/05/02 10:56:13;;;;;;;7.80;5.97;;;;;;;18.65;42.94;97335.56;5039154;28;20511;-69
2022/05/02 10:58:43;;;;;;;9.30;7.28;;;;;;;18.61;44.32;97331.81;5038169;28;20037;-70
2022/05/02 11:01:17;;;;;;;9.77;7.03;;;;;;;18.70;43.72;97321.75;5052154;28;20056;-70
2022/05/02 11:04:14;;;;;;;8.85;6.88;;;;;;;17.47;45.42;97332.72;5044721;28;20299;-70
2022/05/02 11:07:08;;;;;;;7.95;6.03;;;;;;;17.54;45.67;97335.06;5048114;28;20044;-71
2022/05/02 11:09:44;;;;;;;8.82;6.55;;;;;;;17.46;45.82;97328.34;5036030;28;20068;-67
2022/05/02 11:12:14;;;;;;;9.40;7.18;;;;;;;17.76;45.60;97318.00;5039969;28;20467;-71
2022/05/02 11:14:51;;;;;;;8.55;6.72;;;;;;;18.21;44.46;97319.44;5038502;28;20688;-74
2022/05/02 11:17:33;;;;;;;9.50;6.45;;;;;;;18.61;43.09;97312.63;5044076;28;20057;-72
2022/05/02 11:23:18;;;;;;;10.10;6.28;;;;;;;17.62;44.85;97317.97;5044175;28;20759;-71
2022/05/02 11:26:10;;;;;;;;;;;;;;;17.81;45.09;97315.19;5046557;28;20044;-70
2022/05/02 11:28:54;;;;;;;9.20;7.20;;;;;;;17.33;46.69;97307.22;5041117;28;19924;-74
2022/05/02 11:31:30;;;;;;;9.25;6.43;;;;;;;17.21;46.78;97313.97;5044199;28;20045;-74
2022/05/02 11:34:28;;;;;;;9.02;7.07;;;;;;;17.52;45.55;97308.03;5045182;28;20056;-71
2022/05/02 11:36:58;;;;;;;9.93;7.88;;;;;;;17.84;44.94;97304.75;5041410;28;20500;-74
2022/05/02 11:39:56;;;;;;;10.07;6.70;;;;;;;17.97;44.60;97300.38;5057575;28;20048;-70
2022/05/02 11:42:27;;;;;;;8.90;7.13;;;;;;;17.52;46.39;97299.00;5038050;28;20127;-71
2022/05/02 11:45:06;;;;;;;;;;;;;;;17.90;45.63;97303.53;5045637;28;20056;-75
2022/05/02 11:47:51;;;;;;;10.88;7.90;;;;;;;17.58;47.03;97299.72;5043227;28;19935;-71
2022/05/02 11:50:23;;;;;;;9.68;7.00;;;;;;;18.46;46.93;97295.34;5042044;28;20044;-68
2022/05/02 11:52:59;;;;;;;10.20;7.05;;;;;;;18.59;45.93;97294.56;5041578;28;20485;-70
2022/05/02 11:55:33;;;;;;;9.60;7.13;;;;;;;18.69;45.06;97301.72;5043509;28;20049;-69
2022/05/02 11:58:08;;;;;;;7.32;6.20;;;;;;;17.91;44.86;97291.47;5042211;28;20041;-67
2022/05/02 12:00:37;;;;;;;9.73;7.00;;;;;;;18.27;45.23;97300.94;5041362;28;20057;-67
2022/05/02 12:03:18;;;;;;;10.68;8.85;;;;;;;18.73;46.88;97299.19;5044324;28;20428;-67
2022/05/02 12:06:01;;;;;;;14.15;8.15;;;;;;;18.52;46.73;97299.63;5040246;28;20037;-66
2022/05/02 12:08:34;;;;;;;9.57;7.75;;;;;;;18.80;46.19;97294.09;5042308;28;20045;-67
2022/05/02 12:11:11;;;;;;;14.93;7.72;;;;;;;18.61;47.01;97302.44;5043436;28;20053;-70
2022/05/02 12:13:46;;;;;;;11.98;7.97;;;;;;;18.01;48.93;97293.19;5041207;28;20064;-67
2022/05/02 12:16:18;;;;;;;10.77;8.20;;;;;;;17.66;48.59;97291.63;5040249;28;20071;-68
2022/05/02 12:18:48;;;;;;;12.50;7.97;;;;;;;17.90;48.68;97292.56;5040099;28;20119;-72
2022/05/02 12:21:32;;;;;;;10.68;8.98;;;;;;;18.44;47.69;97290.22;5048535;28;20524;-67
2022/05/02 12:24:04;;;;;;;11.38;8.35;;;;;;;18.86;46.88;97281.06;5054502;28;20040;-66
2022/05/02 12:26:44;;;;;;;12.65;7.75;;;;;;;18.65;46.23;97278.00;5043037;28;20041;-69